Time;durP1;ratioP1;P1;durP2;ratioP2;P2;SDS_P1;SDS_P2;PMS_P1;PMS_P2;Temp;Humidity;BMP_temperature;BMP_pressure;BME280_temperature;BME280_humidity;BME280_pressure;Samples;Min_cycle;Max_cycle;Signal;HPM_P1;HPM_P2
2022/04/11 00:00:32;;;;;;;7.67;7.47;;;23.40;40.50;;;;;;5102288;22;21030;-50
2022/04/11 00:02:59;;;;;;;8.10;7.90;;;23.40;40.40;;;;;;5074548;28;20471;-55
2022/04/11 00:05:27;;;;;;;8.30;8.00;;;23.40;40.40;;;;;;5071291;28;20435;-51
2022/04/11 00:07:53;;;;;;;7.50;7.20;;;23.40;40.50;;;;;;5071148;28;20451;-53
2022/04/11 00:10:20;;;;;;;8.10;7.90;;;23.40;40.40;;;;;;5071344;28;20455;-50
2022/04/11 00:12:47;;;;;;;7.80;7.60;;;23.30;40.40;;;;;;5071614;28;20439;-54
2022/04/11 00:15:14;;;;;;;8.03;7.73;;;23.30;40.40;;;;;;5071374;28;20440;-51
2022/04/11 00:17:40;;;;;;;6.70;6.60;;;23.30;40.40;;;;;;5056443;28;20804;-50
2022/04/11 00:20:08;;;;;;;8.27;8.07;;;23.30;40.50;;;;;;5058008;28;20484;-55
2022/04/11 00:22:37;;;;;;;7.73;7.53;;;23.30;40.50;;;;;;5071297;28;20934;-50
2022/04/11 00:25:04;;;;;;;7.20;7.00;;;23.20;40.40;;;;;;5071505;28;20455;-50
2022/04/11 00:27:31;;;;;;;7.70;7.50;;;23.20;40.50;;;;;;5057467;28;20973;-52
2022/04/11 00:29:58;;;;;;;7.40;7.20;;;23.20;40.50;;;;;;5051236;28;20472;-53
2022/04/11 00:32:24;;;;;;;7.70;7.50;;;23.20;40.50;;;;;;5051459;28;20445;-51
2022/04/11 00:34:51;;;;;;;8.03;7.83;;;23.20;41.10;;;;;;5051058;28;20453;-55
2022/04/11 00:37:18;;;;;;;8.03;7.73;;;23.10;40.50;;;;;;5061940;28;20444;-54
2022/04/11 00:39:46;;;;;;;7.20;7.00;;;23.10;40.50;;;;;;5070979;28;20483;-57
2022/04/11 00:42:15;;;;;;;8.07;7.87;;;23.10;40.50;;;;;;5071191;28;20802;-53
2022/04/11 00:44:42;;;;;;;7.40;7.20;;;23.10;40.50;;;;;;5071062;28;20452;-57
2022/04/11 00:47:09;;;;;;;7.53;7.30;;;23.10;40.60;;;;;;5060957;28;20943;-53
2022/04/11 00:49:35;;;;;;;7.67;7.47;;;23.10;40.60;;;;;;5050968;28;20978;-52
2022/04/11 00:52:02;;;;;;;7.30;7.10;;;23.10;40.60;;;;;;5052992;28;20471;-52
2022/04/11 00:54:32;;;;;;;7.93;7.73;;;23.00;41.10;;;;;;5054843;28;20510;-53
2022/04/11 00:57:00;;;;;;;7.97;7.77;;;23.10;40.60;;;;;;5062439;28;20456;-52
2022/04/11 00:59:27;;;;;;;7.50;7.30;;;23.00;40.50;;;;;;5074640;28;20490;-54
2022/04/11 01:01:54;;;;;;;7.47;7.27;;;23.10;40.50;;;;;;5074602;28;20942;-53
2022/04/11 01:04:26;;;;;;;7.53;7.33;;;23.10;40.50;;;;;;5074540;28;20957;-53
2022/04/11 01:06:53;;;;;;;8.90;8.60;;;23.10;40.40;;;;;;5067199;28;20539;-52
2022/04/11 01:09:20;;;;;;;7.23;7.03;;;23.10;40.40;;;;;;5054429;28;20997;-56
2022/04/11 01:11:47;;;;;;;7.83;7.63;;;23.10;40.40;;;;;;5054641;28;20444;-53
2022/04/11 01:14:15;;;;;;;7.63;7.33;;;23.10;40.40;;;;;;5054437;28;20451;-52
2022/04/11 01:16:47;;;;;;;7.10;6.90;;;23.10;40.40;;;;;;5059277;28;20443;-52
2022/04/11 01:19:14;;;;;;;7.57;7.37;;;23.10;40.40;;;;;;5074121;28;20467;-56
2022/04/11 01:21:42;;;;;;;7.57;7.27;;;23.10;40.40;;;;;;5074326;28;20443;-51
2022/04/11 01:24:09;;;;;;;7.37;7.17;;;23.10;40.30;;;;;;5074242;28;20790;-51
2022/04/11 01:26:37;;;;;;;7.10;7.00;;;23.10;40.30;;;;;;5072287;28;20459;-51
2022/04/11 01:29:04;;;;;;;6.77;6.57;;;23.10;40.30;;;;;;5074122;28;20707;-54
2022/04/11 01:31:31;;;;;;;7.27;7.07;;;23.10;40.40;;;;;;5074156;28;20439;-54
2022/04/11 01:33:58;;;;;;;7.20;7.00;;;23.10;40.40;;;;;;5074244;28;20447;-53
2022/04/11 01:36:25;;;;;;;7.60;7.40;;;23.10;40.40;;;;;;5057546;28;20962;-52
2022/04/11 01:38:53;;;;;;;7.50;7.30;;;23.10;40.40;;;;;;5053943;28;20471;-52
2022/04/11 01:41:20;;;;;;;7.10;6.90;;;23.00;40.40;;;;;;5053966;28;20484;-51
2022/04/11 01:43:47;;;;;;;6.90;6.73;;;23.10;40.40;;;;;;5055164;28;20494;-52
2022/04/11 01:46:14;;;;;;;7.20;7.00;;;23.00;40.40;;;;;;5053708;28;20453;-51
2022/04/11 01:48:41;;;;;;;6.60;6.47;;;23.00;40.30;;;;;;5053724;28;20822;-53
2022/04/11 01:51:08;;;;;;;7.80;7.57;;;23.10;40.40;;;;;;5053809;28;20524;-51
2022/04/11 01:53:35;;;;;;;7.57;7.30;;;23.10;40.50;;;;;;5061261;28;20448;-51
2022/04/11 01:56:03;;;;;;;6.90;6.70;;;23.00;40.40;;;;;;5073798;28;20443;-52
2022/04/11 01:58:30;;;;;;;7.27;7.17;;;23.10;40.50;;;;;;5073410;28;20447;-51
2022/04/11 02:00:58;;;;;;;7.47;7.37;;;23.00;40.40;;;;;;5073537;28;20475;-52
2022/04/11 02:03:26;;;;;;;8.50;8.20;;;23.00;40.40;;;;;;5068956;28;20453;-52
2022/04/11 02:05:53;;;;;;;7.50;7.30;;;23.00;40.40;;;;;;5053365;28;20810;-52
2022/04/11 02:08:20;;;;;;;7.00;6.80;;;23.00;40.40;;;;;;5053404;28;20539;-53
2022/04/11 02:10:47;;;;;;;7.60;7.40;;;23.00;40.40;;;;;;5053509;28;20803;-51
2022/04/11 02:13:15;;;;;;;7.73;7.53;;;23.00;40.40;;;;;;5057498;28;20443;-54
2022/04/11 02:15:42;;;;;;;7.77;7.50;;;23.00;40.40;;;;;;5073191;28;20772;-55
2022/04/11 02:18:08;;;;;;;7.17;7.00;;;23.00;40.40;;;;;;5073260;28;20452;-51
2022/04/11 02:20:35;;;;;;;7.63;7.43;;;23.00;40.40;;;;;;5073169;28;20483;-53
2022/04/11 02:23:02;;;;;;;7.53;7.33;;;23.00;40.40;;;;;;5067923;28;20441;-52
2022/04/11 02:25:32;;;;;;;7.53;7.43;;;22.90;40.30;;;;;;5059388;28;20447;-53
2022/04/11 02:27:59;;;;;;;7.87;7.67;;;23.00;40.40;;;;;;5072987;28;20447;-51
2022/04/11 02:30:28;;;;;;;7.67;7.53;;;23.00;40.40;;;;;;5072961;28;20455;-51
2022/04/11 02:32:55;;;;;;;7.77;7.57;;;23.00;40.50;;;;;;5068703;28;20455;-55
2022/04/11 02:35:23;;;;;;;8.00;7.80;;;22.90;40.40;;;;;;5052966;28;20920;-57
2022/04/11 02:37:49;;;;;;;8.20;7.80;;;22.90;40.40;;;;;;5052821;28;20448;-51
2022/04/11 02:40:17;;;;;;;7.80;7.60;;;23.00;40.40;;;;;;5052972;28;20484;-51
2022/04/11 02:42:45;;;;;;;7.77;7.57;;;22.90;40.40;;;;;;5070010;28;20814;-52
2022/04/11 02:45:13;;;;;;;8.00;7.80;;;22.90;40.40;;;;;;5072712;28;20450;-51
2022/04/11 02:47:42;;;;;;;8.17;7.97;;;22.90;40.40;;;;;;5072539;28;20450;-51
2022/04/11 02:50:10;;;;;;;7.70;7.50;;;22.90;40.40;;;;;;5072461;28;20550;-53
2022/04/11 02:52:37;;;;;;;7.20;7.00;;;22.90;40.40;;;;;;5056548;28;20456;-53
2022/04/11 02:55:04;;;;;;;7.57;7.37;;;22.90;40.40;;;;;;5032621;28;20445;-51
2022/04/11 02:57:31;;;;;;;7.57;7.27;;;22.90;40.40;;;;;;5032335;28;20448;-53
2022/04/11 02:59:58;;;;;;;7.70;7.50;;;22.90;40.40;;;;;;5032245;28;20488;-54
2022/04/11 03:02:25;;;;;;;7.63;7.43;;;22.90;40.30;;;;;;5069271;28;20449;-52
2022/04/11 03:04:53;;;;;;;7.87;7.67;;;22.90;40.30;;;;;;5072289;28;20806;-51
2022/04/11 03:07:20;;;;;;;7.57;7.37;;;23.00;40.30;;;;;;5072074;28;20451;-53
2022/04/11 03:09:47;;;;;;;7.60;7.40;;;23.00;40.30;;;;;;5072178;28;20475;-55
2022/04/11 03:12:14;;;;;;;7.30;7.20;;;23.00;40.30;;;;;;5055184;28;20448;-51
2022/04/11 03:14:41;;;;;;;8.00;7.80;;;23.00;40.30;;;;;;5052139;28;20452;-51
2022/04/11 03:17:08;;;;;;;7.90;7.70;;;23.00;40.30;;;;;;5052164;28;20449;-51
2022/04/11 03:19:35;;;;;;;7.30;7.10;;;23.00;40.20;;;;;;5051999;28;20502;-52
2022/04/11 03:22:03;;;;;;;7.70;7.50;;;23.00;40.20;;;;;;5066416;28;20479;-59
2022/04/11 03:24:30;;;;;;;8.03;7.80;;;22.90;40.20;;;;;;5072005;28;20805;-53
2022/04/11 03:26:56;;;;;;;7.90;7.70;;;23.00;40.20;;;;;;5071748;28;20790;-52
2022/04/11 03:29:23;;;;;;;7.10;6.90;;;22.90;40.20;;;;;;5071856;28;20468;-52
2022/04/11 03:31:50;;;;;;;7.57;7.37;;;22.90;40.20;;;;;;5058825;28;20444;-54
2022/04/11 03:34:17;;;;;;;7.37;7.17;;;22.90;40.20;;;;;;5051790;28;20440;-56
2022/04/11 03:36:43;;;;;;;7.17;7.07;;;22.90;40.20;;;;;;5051692;28;20455;-52
2022/04/11 03:39:12;;;;;;;8.37;8.17;;;22.90;40.20;;;;;;5055942;28;20464;-53
2022/04/11 03:41:38;;;;;;;7.17;7.07;;;22.90;40.10;;;;;;5071524;28;20483;-52
2022/04/11 03:44:06;;;;;;;6.60;6.50;;;22.90;40.10;;;;;;5071727;28;20443;-51
2022/04/11 03:46:32;;;;;;;6.93;6.83;;;22.90;40.20;;;;;;5071487;28;20481;-54
2022/04/11 03:48:59;;;;;;;7.53;7.33;;;22.90;40.20;;;;;;5068722;28;20531;-51
2022/04/11 03:51:26;;;;;;;7.53;7.33;;;22.90;40.20;;;;;;5051923;28;20439;-51
2022/04/11 03:53:52;;;;;;;7.63;7.43;;;22.90;40.20;;;;;;5051620;28;20966;-53
2022/04/11 03:56:20;;;;;;;8.10;7.90;;;22.90;40.20;;;;;;5051660;28;20456;-53
2022/04/11 03:58:48;;;;;;;8.20;7.90;;;22.90;40.20;;;;;;5051864;28;20472;-53
2022/04/11 04:01:15;;;;;;;7.77;7.47;;;22.90;40.20;;;;;;5071358;28;20838;-53
2022/04/11 04:03:41;;;;;;;8.20;8.00;;;22.90;40.10;;;;;;5071633;28;20935;-51
2022/04/11 04:06:08;;;;;;;8.10;7.90;;;22.90;40.20;;;;;;5071579;28;20447;-54
2022/04/11 04:08:35;;;;;;;8.07;7.87;;;22.90;40.30;;;;;;5071340;28;20444;-52
2022/04/11 04:11:03;;;;;;;8.00;7.80;;;22.90;40.30;;;;;;5052048;28;20961;-51
2022/04/11 04:13:31;;;;;;;7.90;7.70;;;22.90;40.30;;;;;;5051359;28;20452;-51
2022/04/11 04:15:58;;;;;;;8.40;8.20;;;22.90;40.30;;;;;;5051253;28;20437;-52
2022/04/11 04:18:24;;;;;;;7.60;7.40;;;22.90;40.20;;;;;;5061936;28;20950;-51
2022/04/11 04:20:51;;;;;;;8.97;8.67;;;22.90;40.20;;;;;;5071166;28;20486;-54
2022/04/11 04:23:18;;;;;;;8.43;8.23;;;22.90;40.20;;;;;;5071244;28;20819;-52
2022/04/11 04:25:45;;;;;;;8.13;7.93;;;22.90;40.20;;;;;;5071312;28;20447;-51
2022/04/11 04:28:13;;;;;;;8.50;8.27;;;22.90;40.10;;;;;;5065830;28;20455;-53
2022/04/11 04:30:41;;;;;;;8.77;8.57;;;22.90;40.10;;;;;;5055137;28;20487;-53
2022/04/11 04:33:08;;;;;;;8.17;7.97;;;23.00;40.20;;;;;;5055265;28;20814;-51
2022/04/11 04:35:34;;;;;;;7.60;7.40;;;23.00;40.20;;;;;;5055137;28;20455;-51
2022/04/11 04:38:01;;;;;;;8.23;8.03;;;23.00;40.20;;;;;;5064825;28;20456;-51
2022/04/11 04:40:28;;;;;;;7.40;7.20;;;23.00;40.20;;;;;;5075110;28;20819;-51
2022/04/11 04:42:54;;;;;;;8.80;8.60;;;23.00;40.20;;;;;;5075179;28;20454;-51
2022/04/11 04:45:23;;;;;;;8.00;7.77;;;23.00;40.20;;;;;;5073176;28;20450;-51
2022/04/11 04:47:51;;;;;;;8.67;8.47;;;23.00;40.20;;;;;;5054890;28;20452;-54
2022/04/11 04:50:18;;;;;;;8.10;7.90;;;23.00;40.20;;;;;;5054992;28;20459;-54
2022/04/11 04:52:45;;;;;;;8.20;8.00;;;23.00;40.20;;;;;;5054826;28;20935;-51
2022/04/11 04:55:11;;;;;;;7.63;7.43;;;23.00;40.20;;;;;;5054790;28;20436;-52
2022/04/11 04:57:38;;;;;;;7.47;7.27;;;23.00;40.30;;;;;;5054586;28;20444;-54
2022/04/11 05:00:07;;;;;;;7.73;7.43;;;23.00;40.30;;;;;;5054877;28;20472;-53
2022/04/11 05:02:37;;;;;;;7.77;7.57;;;22.90;40.30;;;;;;5054635;28;20488;-51
2022/04/11 05:05:08;;;;;;;7.97;7.77;;;22.90;40.30;;;;;;5054949;28;20448;-53
2022/04/11 05:07:35;;;;;;;8.07;7.87;;;22.90;40.40;;;;;;5073659;28;20968;-52
2022/04/11 05:10:02;;;;;;;8.10;7.90;;;22.90;40.40;;;;;;5074623;28;20918;-51
2022/04/11 05:12:29;;;;;;;7.70;7.50;;;22.90;40.40;;;;;;5074643;28;20439;-54
2022/04/11 05:14:55;;;;;;;8.20;8.00;;;22.80;40.30;;;;;;5074333;28;20462;-51
2022/04/11 05:17:22;;;;;;;8.77;8.47;;;22.80;40.50;;;;;;5072511;28;20443;-51
2022/04/11 05:19:49;;;;;;;9.30;8.90;;;22.80;40.90;;;;;;5074455;28;20471;-52
2022/04/11 05:22:17;;;;;;;9.20;8.80;;;22.80;41.30;;;;;;5074508;28;20479;-52
2022/04/11 05:24:44;;;;;;;11.17;10.67;;;22.80;42.70;;;;;;5074371;28;20455;-51
2022/04/11 05:27:11;;;;;;;12.60;11.07;;;22.80;44.10;;;;;;5058831;28;20452;-54
2022/04/11 05:29:37;;;;;;;10.97;10.40;;;22.80;47.50;;;;;;5054148;28;20464;-52
2022/04/11 05:32:05;;;;;;;12.00;11.20;;;22.70;47.40;;;;;;5057534;28;20452;-51
2022/04/11 05:34:32;;;;;;;11.40;10.60;;;22.70;47.70;;;;;;5074342;28;20439;-53
2022/04/11 05:36:58;;;;;;;11.30;10.47;;;22.70;47.30;;;;;;5073215;28;20926;-50
2022/04/11 05:39:26;;;;;;;9.80;9.30;;;22.80;47.00;;;;;;5074012;28;20464;-52
2022/04/11 05:41:53;;;;;;;10.63;9.97;;;22.80;46.70;;;;;;5073898;28;20498;-52
2022/04/11 05:44:20;;;;;;;10.37;9.67;;;22.90;46.00;;;;;;5073866;28;20451;-50
2022/04/11 05:46:52;;;;;;;10.27;9.70;;;22.90;45.20;;;;;;5073677;28;20447;-53
2022/04/11 05:49:19;;;;;;;9.60;9.10;;;23.00;44.70;;;;;;5073812;28;21017;-52
2022/04/11 05:51:46;;;;;;;11.33;10.30;;;23.10;44.30;;;;;;5073755;28;21005;-50
2022/04/11 05:54:13;;;;;;;12.50;9.90;;;23.10;43.90;;;;;;5073696;28;20956;-52
2022/04/11 05:56:41;;;;;;;10.60;9.87;;;23.10;43.50;;;;;;5073438;28;20530;-53
2022/04/11 05:59:08;;;;;;;10.07;9.43;;;23.20;43.40;;;;;;5073908;28;20521;-51
2022/04/11 06:01:35;;;;;;;11.20;10.40;;;23.20;43.20;;;;;;5073508;28;20483;-50
2022/04/11 06:04:02;;;;;;;9.67;9.03;;;23.20;43.00;;;;;;5073647;28;20447;-50
2022/04/11 06:06:29;;;;;;;9.77;9.03;;;23.20;42.90;;;;;;5073288;28;20451;-51
2022/04/11 06:08:55;;;;;;;10.43;9.93;;;23.20;42.70;;;;;;5073677;28;20816;-54
2022/04/11 06:11:22;;;;;;;10.10;9.60;;;23.20;42.60;;;;;;5073416;28;20448;-52
2022/04/11 06:13:50;;;;;;;9.93;9.43;;;23.20;42.50;;;;;;5073251;28;20814;-50
2022/04/11 06:16:17;;;;;;;10.57;9.70;;;23.20;42.50;;;;;;5073136;28;20447;-50
2022/04/11 06:18:44;;;;;;;8.80;8.40;;;23.20;42.30;;;;;;5073246;28;20470;-51
2022/04/11 06:21:10;;;;;;;11.30;10.77;;;23.20;42.30;;;;;;5073048;28;20480;-52
2022/04/11 06:23:37;;;;;;;9.17;8.50;;;23.20;42.20;;;;;;5073106;28;20439;-50
2022/04/11 06:26:04;;;;;;;9.50;9.13;;;23.10;42.10;;;;;;5073037;28;20444;-50
2022/04/11 06:28:31;;;;;;;10.73;10.10;;;23.10;42.10;;;;;;5072863;28;20443;-53
2022/04/11 06:30:59;;;;;;;9.93;9.53;;;23.10;42.10;;;;;;5072979;28;20804;-51
2022/04/11 06:33:25;;;;;;;11.63;11.03;;;23.10;42.10;;;;;;5073245;28;20818;-50
2022/04/11 06:35:52;;;;;;;9.70;9.20;;;23.00;42.00;;;;;;5072758;28;20443;-50
2022/04/11 06:38:19;;;;;;;9.90;9.40;;;23.10;42.10;;;;;;5072873;28;20467;-50
2022/04/11 06:40:45;;;;;;;9.97;9.67;;;23.00;42.00;;;;;;5072830;28;20456;-50
2022/04/11 06:43:12;;;;;;;9.33;9.00;;;23.00;42.00;;;;;;5072573;28;20479;-50
2022/04/11 06:45:39;;;;;;;8.93;8.60;;;23.00;42.00;;;;;;5072523;28;20454;-50
2022/04/11 06:48:09;;;;;;;10.20;9.70;;;23.00;42.00;;;;;;5072656;28;20447;-50
2022/04/11 06:50:35;;;;;;;9.87;9.27;;;22.90;41.90;;;;;;5072166;28;20467;-55
2022/04/11 06:53:02;;;;;;;10.07;9.67;;;22.90;41.90;;;;;;5072618;28;20442;-54
2022/04/11 06:55:29;;;;;;;9.70;9.30;;;22.90;41.90;;;;;;5072488;28;20451;-53
2022/04/11 06:57:56;;;;;;;10.07;9.67;;;22.90;41.90;;;;;;5072357;28;20521;-50
2022/04/11 07:00:22;;;;;;;9.40;8.90;;;23.00;41.90;;;;;;5072313;28;20471;-50
2022/04/11 07:02:50;;;;;;;9.33;8.77;;;23.00;41.80;;;;;;5072348;28;20853;-52
2022/04/11 07:05:18;;;;;;;8.60;8.30;;;23.00;41.70;;;;;;5072442;28;20938;-51
2022/04/11 07:07:45;;;;;;;9.37;9.00;;;23.10;41.60;;;;;;5072252;28;20447;-53
2022/04/11 07:10:12;;;;;;;9.53;9.23;;;23.20;41.60;;;;;;5072192;28;20482;-51
2022/04/11 07:12:39;;;;;;;10.40;10.03;;;23.20;41.40;;;;;;5072094;28;20432;-50
2022/04/11 07:15:07;;;;;;;9.20;8.80;;;23.30;41.30;;;;;;5072205;28;20444;-50
2022/04/11 07:17:33;;;;;;;8.60;8.20;;;23.40;41.20;;;;;;5071793;28;20514;-55
2022/04/11 07:20:01;;;;;;;8.90;8.60;;;23.40;41.10;;;;;;5071975;28;20467;-50
2022/04/11 07:22:29;;;;;;;9.33;9.03;;;23.50;41.10;;;;;;5071948;28;20475;-51
2022/04/11 07:24:56;;;;;;;9.70;9.10;;;23.50;41.00;;;;;;5071955;28;20455;-52
2022/04/11 07:27:22;;;;;;;9.20;8.90;;;23.50;40.90;;;;;;5071659;28;20443;-50
2022/04/11 07:29:49;;;;;;;8.93;8.70;;;23.50;40.80;;;;;;5071815;28;20475;-52
2022/04/11 07:32:16;;;;;;;8.60;8.30;;;23.60;40.80;;;;;;5071828;28;20439;-51
2022/04/11 07:34:42;;;;;;;8.40;8.10;;;23.60;40.80;;;;;;5071781;28;20447;-51
2022/04/11 07:37:11;;;;;;;9.33;9.00;;;23.50;40.70;;;;;;5071610;28;20447;-50
2022/04/11 07:39:39;;;;;;;8.67;8.37;;;23.50;40.70;;;;;;5071612;28;20467;-51
2022/04/11 07:42:07;;;;;;;8.80;8.60;;;23.50;41.20;;;;;;5071728;28;20558;-52
2022/04/11 07:44:33;;;;;;;9.43;9.03;;;23.50;40.70;;;;;;5071805;28;20436;-50
2022/04/11 07:47:00;;;;;;;8.93;8.63;;;23.50;40.70;;;;;;5071524;28;20455;-50
2022/04/11 07:49:27;;;;;;;8.40;8.20;;;23.50;40.70;;;;;;5071631;28;20493;-51
2022/04/11 07:51:54;;;;;;;8.60;8.30;;;23.40;40.70;;;;;;5071537;28;20435;-52
2022/04/11 07:54:20;;;;;;;8.70;8.30;;;23.40;40.70;;;;;;5071540;28;20455;-52
2022/04/11 07:56:48;;;;;;;9.27;8.97;;;23.40;40.80;;;;;;5071386;28;20454;-55
2022/04/11 07:59:15;;;;;;;8.77;8.47;;;23.40;40.80;;;;;;5071369;28;20475;-50
2022/04/11 08:01:42;;;;;;;8.60;8.30;;;23.30;40.80;;;;;;5071489;28;20518;-50
2022/04/11 08:04:09;;;;;;;8.37;8.07;;;23.30;40.80;;;;;;5071438;28;20784;-51
2022/04/11 08:06:36;;;;;;;9.07;8.77;;;23.30;40.90;;;;;;5071177;28;20466;-51
2022/04/11 08:09:03;;;;;;;8.30;7.90;;;23.20;40.80;;;;;;5071616;28;20467;-51
2022/04/11 08:11:30;;;;;;;8.90;8.50;;;23.20;40.90;;;;;;5071286;28;20835;-51
2022/04/11 08:13:58;;;;;;;8.60;8.30;;;23.20;40.90;;;;;;5071359;28;20470;-50
2022/04/11 08:16:25;;;;;;;8.63;8.43;;;23.10;40.90;;;;;;5071374;28;20822;-51
2022/04/11 08:18:52;;;;;;;8.67;8.47;;;23.10;41.00;;;;;;5071307;28;20460;-51
2022/04/11 08:21:19;;;;;;;10.03;9.60;;;23.10;41.00;;;;;;5071508;28;20451;-52
2022/04/11 08:23:45;;;;;;;9.10;8.80;;;23.10;41.00;;;;;;5071379;28;20502;-54
2022/04/11 08:26:12;;;;;;;10.07;9.47;;;23.00;41.00;;;;;;5071545;28;20439;-55
2022/04/11 08:28:39;;;;;;;9.47;9.17;;;23.00;41.10;;;;;;5071193;28;20443;-54
2022/04/11 08:31:07;;;;;;;8.30;8.10;;;23.00;41.10;;;;;;5071152;28;20447;-51
2022/04/11 08:33:34;;;;;;;12.10;11.57;;;22.90;41.00;;;;;;5071243;28;20793;-53
2022/04/11 08:36:01;;;;;;;10.30;9.90;;;22.90;41.10;;;;;;5071029;28;20439;-51
2022/04/11 08:38:27;;;;;;;9.60;9.40;;;22.90;41.00;;;;;;5071545;28;20443;-54
2022/04/11 08:40:55;;;;;;;7.80;7.60;;;23.00;41.10;;;;;;5071082;28;20443;-54
2022/04/11 08:43:23;;;;;;;8.10;7.90;;;23.00;41.00;;;;;;5071017;28;20484;-55
2022/04/11 08:45:52;;;;;;;8.37;8.17;;;23.10;40.90;;;;;;5070847;28;20969;-52
2022/04/11 08:48:22;;;;;;;8.67;8.47;;;23.20;40.80;;;;;;5071020;28;20439;-51
2022/04/11 08:50:49;;;;;;;8.73;8.50;;;23.30;40.60;;;;;;5070974;28;20447;-52
2022/04/11 08:53:20;;;;;;;9.00;8.70;;;23.40;40.40;;;;;;5070960;28;20946;-51
2022/04/11 08:55:47;;;;;;;8.97;8.77;;;23.50;40.30;;;;;;5070804;28;20450;-52
2022/04/11 08:58:14;;;;;;;8.27;7.97;;;23.60;40.20;;;;;;5070813;28;20951;-50
2022/04/11 09:00:40;;;;;;;8.77;8.57;;;23.70;40.10;;;;;;5070683;28;20471;-53
2022/04/11 09:03:08;;;;;;;8.30;7.90;;;23.70;40.00;;;;;;5070886;28;20479;-52
2022/04/11 09:05:36;;;;;;;8.23;7.90;;;23.80;39.90;;;;;;5070643;28;20451;-51
2022/04/11 09:08:03;;;;;;;9.00;8.73;;;23.80;39.90;;;;;;5070711;28;20817;-50
2022/04/11 09:10:32;;;;;;;8.77;8.50;;;23.80;39.80;;;;;;5070697;28;21072;-50
2022/04/11 09:13:01;;;;;;;8.63;8.43;;;23.80;39.80;;;;;;5072368;28;20926;-52
2022/04/11 09:15:29;;;;;;;8.83;8.53;;;23.90;39.80;;;;;;5074295;28;20900;-50
2022/04/11 09:17:58;;;;;;;8.33;8.00;;;23.90;39.80;;;;;;5074469;28;20443;-50
2022/04/11 09:20:27;;;;;;;8.47;8.27;;;23.90;39.80;;;;;;5074296;28;21051;-55
2022/04/11 09:22:55;;;;;;;8.40;8.20;;;23.90;39.80;;;;;;5074124;28;20483;-51
2022/04/11 09:25:23;;;;;;;8.43;8.17;;;23.80;39.80;;;;;;5074212;28;20447;-52
2022/04/11 09:28:05;;;;;;;8.40;8.20;;;23.80;39.80;;;;;;5074355;28;20443;-51
2022/04/11 09:30:32;;;;;;;7.90;7.70;;;23.80;39.80;;;;;;5074110;28;20517;-50
2022/04/11 09:33:04;;;;;;;8.53;8.33;;;23.80;39.80;;;;;;5074420;28;20481;-50
2022/04/11 09:35:32;;;;;;;8.47;8.17;;;23.80;39.80;;;;;;5073895;28;20452;-50
2022/04/11 09:38:11;;;;;;;8.00;7.80;;;23.70;39.80;;;;;;5073919;28;20451;-52
2022/04/11 09:40:40;;;;;;;8.57;8.33;;;23.70;39.80;;;;;;5073893;28;20463;-50
2022/04/11 09:43:07;;;;;;;8.10;7.90;;;23.70;39.90;;;;;;5073767;28;20480;-50
2022/04/11 09:45:40;;;;;;;8.30;8.10;;;23.70;40.00;;;;;;5073933;28;20447;-50
2022/04/11 09:48:08;;;;;;;8.57;8.37;;;23.60;39.90;;;;;;5073827;28;20443;-50
2022/04/11 09:50:35;;;;;;;8.40;8.20;;;23.60;40.00;;;;;;5073662;28;21009;-54
2022/04/11 09:53:14;;;;;;;8.90;8.70;;;23.60;40.10;;;;;;5062667;28;20440;-50
2022/04/11 09:55:42;;;;;;;8.57;8.37;;;23.60;40.10;;;;;;5057474;28;20535;-50
2022/04/11 09:58:09;;;;;;;8.53;8.23;;;23.50;40.20;;;;;;5073868;28;20448;-50
2022/04/11 10:00:38;;;;;;;8.80;8.60;;;23.40;40.90;;;;;;5073129;28;20475;-51
2022/04/11 10:03:06;;;;;;;9.47;8.97;;;23.40;41.30;;;;;;5052689;28;20503;-50
2022/04/11 10:05:34;;;;;;;8.70;8.50;;;23.30;41.50;;;;;;5062760;28;20443;-53
2022/04/11 10:08:03;;;;;;;8.50;8.30;;;23.20;41.50;;;;;;5072801;28;20857;-50
2022/04/11 10:10:32;;;;;;;9.70;9.33;;;23.20;41.90;;;;;;5073472;28;20795;-50
2022/04/11 10:12:59;;;;;;;8.77;8.57;;;23.20;42.10;;;;;;5073591;28;20435;-51
2022/04/11 10:15:26;;;;;;;9.23;8.93;;;23.10;42.00;;;;;;5073213;28;20457;-52
2022/04/11 10:17:56;;;;;;;9.47;9.17;;;23.10;42.10;;;;;;5054868;28;20448;-49
2022/04/11 10:20:27;;;;;;;9.50;8.90;;;23.10;42.50;;;;;;5071406;28;20549;-54
2022/04/11 10:23:00;;;;;;;10.50;9.90;;;23.00;43.70;;;;;;5071411;28;20479;-52
2022/04/11 10:25:28;;;;;;;9.73;9.37;;;23.00;43.30;;;;;;5056848;28;20449;-50
2022/04/11 10:28:19;;;;;;;10.10;9.70;;;23.00;43.60;;;;;;5053208;28;20444;-52
2022/04/11 10:31:03;;;;;;;10.50;10.10;;;23.00;44.20;;;;;;5053258;28;20465;-49
2022/04/11 10:33:41;;;;;;;9.67;9.27;;;23.00;44.50;;;;;;5067043;28;20493;-50
2022/04/11 10:36:27;;;;;;;8.57;8.37;;;23.20;44.70;;;;;;5072853;28;21028;-54
2022/04/11 10:39:25;;;;;;;9.90;9.30;;;23.30;44.60;;;;;;5072902;28;20858;-50
2022/04/11 10:42:25;;;;;;;9.70;9.23;;;23.40;44.50;;;;;;5071152;28;20530;-50
2022/04/11 10:44:56;;;;;;;9.07;8.83;;;23.60;44.50;;;;;;4991315;28;20494;-51
2022/04/11 10:47:35;;;;;;;8.90;8.70;;;23.70;44.40;;;;;;4991029;28;20455;-51
2022/04/11 10:50:24;;;;;;;8.70;8.40;;;23.70;44.20;;;;;;5022972;28;20479;-50
2022/04/11 10:52:56;;;;;;;8.80;8.50;;;23.80;44.20;;;;;;5052504;28;20443;-55
2022/04/11 10:55:25;;;;;;;8.60;8.30;;;23.80;44.00;;;;;;5032658;28;20445;-52
2022/04/11 10:57:55;;;;;;;9.00;8.70;;;23.80;43.90;;;;;;5032697;28;20828;-54
2022/04/11 11:00:25;;;;;;;8.77;8.50;;;23.90;44.00;;;;;;5063361;28;20561;-51
2022/04/11 11:03:09;;;;;;;9.10;8.77;;;23.90;43.90;;;;;;5072607;28;20914;-54
2022/04/11 11:05:39;;;;;;;9.30;9.00;;;23.90;43.80;;;;;;5072188;28;20448;-50
2022/04/11 11:08:25;;;;;;;8.93;8.63;;;23.90;43.70;;;;;;5072240;28;20480;-52
2022/04/11 11:10:55;;;;;;;8.93;8.63;;;23.90;43.70;;;;;;5066975;28;20539;-52
2022/04/11 11:13:26;;;;;;;9.50;9.23;;;23.90;43.70;;;;;;5052460;28;20785;-53
2022/04/11 11:15:55;;;;;;;8.70;8.40;;;23.90;43.60;;;;;;5054728;28;20436;-50
2022/04/11 11:18:22;;;;;;;10.10;9.57;;;23.90;43.70;;;;;;5052198;28;20530;-50
2022/04/11 11:20:52;;;;;;;9.70;9.37;;;23.90;43.50;;;;;;5052105;28;20441;-50
2022/04/11 11:23:25;;;;;;;9.87;9.57;;;24.00;43.30;;;;;;5051915;28;20480;-52
2022/04/11 11:25:53;;;;;;;9.30;9.00;;;24.00;43.10;;;;;;5051774;28;20452;-52
2022/04/11 11:28:20;;;;;;;9.13;8.93;;;24.00;43.00;;;;;;5051920;28;20452;-51
2022/04/11 11:30:47;;;;;;;8.80;8.60;;;24.10;42.90;;;;;;5052271;28;20451;-50
2022/04/11 11:33:16;;;;;;;8.63;8.43;;;24.00;42.70;;;;;;5051884;28;20449;-50
2022/04/11 11:35:47;;;;;;;8.90;8.60;;;24.00;42.60;;;;;;5051425;28;20474;-50
2022/04/11 11:38:14;;;;;;;8.97;8.67;;;24.00;42.60;;;;;;5051899;28;20440;-51
2022/04/11 11:40:44;;;;;;;8.70;8.50;;;24.00;42.50;;;;;;5051759;28;20468;-53
2022/04/11 11:43:14;;;;;;;9.17;8.87;;;24.00;42.40;;;;;;5051800;28;20538;-52
2022/04/11 11:45:41;;;;;;;8.63;8.43;;;24.00;42.40;;;;;;5051449;28;20444;-50
2022/04/11 11:48:25;;;;;;;9.00;8.70;;;24.00;42.40;;;;;;5051649;28;20514;-53
2022/04/11 11:50:56;;;;;;;9.37;9.00;;;24.00;42.40;;;;;;5049697;28;20460;-50
2022/04/11 11:53:23;;;;;;;10.00;9.60;;;23.90;42.30;;;;;;5051804;28;20852;-55
2022/04/11 11:55:55;;;;;;;9.20;9.00;;;24.00;42.30;;;;;;5051449;28;20574;-50
2022/04/11 11:58:22;;;;;;;9.37;9.07;;;24.00;42.20;;;;;;5051301;28;20447;-50
2022/04/11 12:00:50;;;;;;;9.17;8.87;;;24.00;42.10;;;;;;5052198;28;20440;-52
2022/04/11 12:06:09;;;;;;;9.80;9.30;;;24.10;42.00;;;;;;4994553;28;20438;-51
2022/04/11 12:08:35;;;;;;;9.33;9.03;;;24.20;41.90;;;;;;5051409;28;20448;-52
2022/04/11 12:11:03;;;;;;;8.83;8.60;;;24.20;41.80;;;;;;5051416;28;20803;-51
2022/04/11 12:13:32;;;;;;;8.60;8.40;;;24.20;41.70;;;;;;5051445;28;20445;-51
2022/04/11 12:16:09;;;;;;;8.90;8.70;;;24.30;41.60;;;;;;5051117;28;20444;-52
2022/04/11 12:18:49;;;;;;;9.07;8.87;;;24.30;41.50;;;;;;5051437;28;20447;-51
2022/04/11 12:21:18;;;;;;;9.57;9.27;;;24.30;41.40;;;;;;5051273;28;20803;-53
2022/04/11 12:23:47;;;;;;;9.00;8.77;;;24.30;41.40;;;;;;5051247;28;20815;-55
2022/04/11 12:26:24;;;;;;;9.23;9.03;;;24.30;41.30;;;;;;5051043;28;20998;-53
2022/04/11 12:28:50;;;;;;;9.10;8.90;;;24.30;41.30;;;;;;5051344;28;20472;-53
2022/04/11 12:31:18;;;;;;;8.53;8.33;;;24.40;41.30;;;;;;5051270;28;20755;-52
2022/04/11 12:33:48;;;;;;;9.03;8.83;;;24.40;41.30;;;;;;5051138;28;20543;-52
2022/04/11 12:36:17;;;;;;;9.30;9.10;;;24.40;41.20;;;;;;5051082;28;20924;-51
2022/04/11 12:38:48;;;;;;;8.80;8.60;;;24.50;41.20;;;;;;5050952;28;20465;-51
2022/04/11 12:41:31;;;;;;;9.17;8.87;;;24.60;41.10;;;;;;5051046;28;20463;-51
2022/04/11 12:44:03;;;;;;;8.30;8.10;;;24.70;40.90;;;;;;5050995;28;20483;-51
2022/04/11 12:46:30;;;;;;;8.93;8.53;;;24.80;40.80;;;;;;5050837;28;20502;-50
2022/04/11 12:48:58;;;;;;;8.60;8.40;;;25.00;40.80;;;;;;5054256;28;20468;-51
2022/04/11 12:51:25;;;;;;;8.50;8.30;;;25.00;40.50;;;;;;5055228;28;20440;-51
2022/04/11 12:54:00;;;;;;;9.63;9.43;;;25.20;40.40;;;;;;5054971;28;20444;-52